Airfield :
LOGIN :

Register | Disclaimer

   EN    FR    IT 

 










Legend :    VFR   Marginal VFR   IFR   Intensive IFR   Very Intensive IFR
Visi :
Ceiling :
>= 8 km
>= 3000ft
5 to 8 km
1000 to 3000 ft
1500m to 5 km
500 to 1000 ft
800 to 1500m
200 to 500 ft
< 800m
< 200 ft
Symbols :   Thunderstorms  Fog  Heavy snow  Heavy precipitations  Wind > 20 kt
SIGMETs :     Misc.  Thunderstorms  Icing  Turbulence  Mountain Waves  Volcanic Ashes







- Airport Elevation : 242 ft
- IATA code : DUB


EIDW - Dublin

CURRENT METAR :
  • 111330Z 14013KT 9999 FEW010 BKN013 BKN023 10/08 Q1016 NOSIG

EXPIRED METARs :
  • 111300Z 14014KT 9999 FEW010 BKN013 BKN025 10/08 Q1016 NOSIG
  • 111230Z 15014KT 9999 BKN013 BKN120 10/07 Q1017 NOSIG
  • 111200Z 16016G26KT 9999 SCT013 SCT080 BKN120 10/07 Q1017 NOSIG
  • 111130Z 17013KT 9999 FEW018 SCT080 BKN120 10/08 Q1018 NOSIG
  • 111100Z 16014KT 9999 FEW018 BKN120 10/08 Q1018 NOSIG

TAF TAF EIDW
Valid from the 11 at 12:00 until the 12 at 12:00 UTC


111100Z 1112/1212 16013KT 9999 FEW018 BKN040
TEMPO 1112/1114 16017G28KT
TEMPO 1112/1119 BKN013
BECMG 1119/1121 15015G26KT
TEMPO 1119/1201 5000 -RA BKN008
BECMG 1200/1202 16012KT
PROB30
TEMPO 1122/1124 RA
BECMG 1202/1204 25008KT
TEMPO 1201/1210 3000 -RADZ BR BKN004
PROB30
TEMPO 1204/1208 2000 BKN002
BECMG 1208/1212 VRB03KT
No reported NOTAMs for that airfield.



MET'MAP, your aeronautical weather chart ! - Copyright ORBIFLY December 2007 - Disclaimer

ORBIFLY MET'MAP TEAM :

Programming & Development : Alexandra Zaïnal
Concept & Development : Baudouin d'Aumeries
Co-Development & Prog : Marc-Olivier Méhu
Technical & hardware support : Manuel Goepfert

Contact : metmap@orbifly.com




SOURCES & CREDITS :

   NOAA